createdAt,value
2022-11-19T00:00:12.795Z,15.31
2022-11-19T00:01:44.519Z,15.27
2022-11-19T00:03:16.756Z,15.27
2022-11-19T00:04:49.385Z,15.23
2022-11-19T00:06:22.078Z,15.22
2022-11-19T00:07:53.825Z,15.23
2022-11-19T00:09:25.739Z,15.23
2022-11-19T00:10:58.885Z,15.24
2022-11-19T00:12:48.950Z,15.23
2022-11-19T00:14:20.779Z,15.23
2022-11-19T00:15:52.707Z,15.21
2022-11-19T00:17:24.309Z,15.24
2022-11-19T00:18:56.096Z,15.27
2022-11-19T00:20:27.852Z,15.34
2022-11-19T00:21:59.744Z,15.40
2022-11-19T00:23:31.626Z,15.40
2022-11-19T00:25:03.977Z,15.41
2022-11-19T00:26:35.739Z,15.41
2022-11-19T00:28:07.815Z,15.42
2022-11-19T00:29:39.628Z,15.43
2022-11-19T00:31:12.025Z,15.43
2022-11-19T00:32:43.647Z,15.43
2022-11-19T00:34:15.362Z,15.47
2022-11-19T00:35:47.402Z,15.46
2022-11-19T00:37:19.146Z,15.42
2022-11-19T00:38:50.995Z,15.40
2022-11-19T00:40:22.679Z,15.41
2022-11-19T00:41:54.304Z,15.42
2022-11-19T00:43:44.787Z,15.40
2022-11-19T00:45:16.863Z,15.40
2022-11-19T00:46:48.427Z,15.40
2022-11-19T00:48:20.421Z,15.43
2022-11-19T00:49:52.004Z,15.49
2022-11-19T00:51:24.010Z,15.54
2022-11-19T00:52:55.671Z,15.55
2022-11-19T00:54:27.394Z,15.57
2022-11-19T00:56:09.622Z,15.58
2022-11-19T00:57:42.474Z,15.60
2022-11-19T00:59:28.274Z,15.56
2022-11-19T01:02:50.212Z,15.58
2022-11-19T01:04:25.559Z,15.56
2022-11-19T01:06:00.109Z,15.56
2022-11-19T01:07:32.804Z,15.58
2022-11-19T01:09:05.184Z,15.60
2022-11-19T01:10:47.498Z,15.61
2022-11-19T01:12:21.506Z,15.57
2022-11-19T01:14:01.106Z,15.53
2022-11-19T01:15:35.951Z,15.48
2022-11-19T01:17:09.132Z,15.45
2022-11-19T01:18:55.639Z,15.43
2022-11-19T01:20:27.600Z,15.40
2022-11-19T01:21:59.466Z,15.40
2022-11-19T01:23:31.275Z,15.42
2022-11-19T01:25:03.001Z,15.40
2022-11-19T01:26:34.965Z,15.43
2022-11-19T01:28:07.366Z,15.44
2022-11-19T01:29:42.722Z,15.40
2022-11-19T01:31:19.849Z,15.36
2022-11-19T01:33:42.793Z,15.30
2022-11-19T01:35:25.681Z,15.32
2022-11-19T01:36:57.503Z,15.35
2022-11-19T01:38:29.411Z,15.36
2022-11-19T01:40:01.089Z,15.40
2022-11-19T01:41:32.816Z,15.38
2022-11-19T01:43:04.453Z,15.32
2022-11-19T01:44:54.919Z,15.26
2022-11-19T01:46:27.451Z,15.19
2022-11-19T01:48:00.581Z,15.18
2022-11-19T01:49:32.265Z,15.23
2022-11-19T01:51:05.249Z,15.26
2022-11-19T01:52:37.077Z,15.26
2022-11-19T01:54:11.292Z,15.29
2022-11-19T01:55:43.256Z,15.30
2022-11-19T01:57:15.098Z,15.33
2022-11-19T01:58:47.740Z,15.35
2022-11-19T02:00:23.662Z,15.36
2022-11-19T02:02:09.692Z,15.35
2022-11-19T02:03:57.422Z,15.34
2022-11-19T02:05:43.176Z,15.33
2022-11-19T02:07:22.998Z,15.29
2022-11-19T02:08:57.175Z,15.28
2022-11-19T02:11:08.276Z,15.31
2022-11-19T02:13:09.644Z,15.28
2022-11-19T02:16:38.083Z,15.25
2022-11-19T02:18:36.664Z,15.24
2022-11-19T02:20:17.757Z,15.24
2022-11-19T02:21:54.252Z,15.26
2022-11-19T02:23:26.158Z,15.31
2022-11-19T02:25:00.978Z,15.33
2022-11-19T02:27:11.398Z,15.30
2022-11-19T02:28:49.074Z,15.31
2022-11-19T02:30:20.783Z,15.29
2022-11-19T02:31:52.748Z,15.25
2022-11-19T02:33:33.283Z,15.21
2022-11-19T02:35:25.207Z,15.15
2022-11-19T02:37:05.603Z,15.17
2022-11-19T02:38:38.572Z,15.20
2022-11-19T02:40:15.318Z,15.24
2022-11-19T02:41:53.509Z,15.27
2022-11-19T02:43:36.229Z,15.31
2022-11-19T02:45:13.047Z,15.34
2022-11-19T02:46:45.539Z,15.35
2022-11-19T02:48:23.737Z,15.35
2022-11-19T02:49:56.995Z,15.32
2022-11-19T02:51:29.262Z,15.32
2022-11-19T02:53:00.930Z,15.32
2022-11-19T02:54:32.623Z,15.33
2022-11-19T02:56:24.560Z,15.31
2022-11-19T02:58:32.443Z,15.28
2022-11-19T03:00:24.199Z,15.29
2022-11-19T03:02:14.067Z,15.32
2022-11-19T03:04:05.036Z,15.34
2022-11-19T03:05:38.878Z,15.30
2022-11-19T03:07:11.208Z,15.27
2022-11-19T03:08:43.237Z,15.24
2022-11-19T03:10:15.040Z,15.23
2022-11-19T03:11:48.676Z,15.23
2022-11-19T03:13:45.585Z,15.21
2022-11-19T03:15:45.142Z,15.17
2022-11-19T03:17:28.044Z,15.13
2022-11-19T03:19:00.065Z,15.11
2022-11-19T03:20:34.074Z,15.12
2022-11-19T03:22:08.556Z,15.11
2022-11-19T03:23:40.140Z,15.09
2022-11-19T03:25:28.606Z,15.08
2022-11-19T03:27:21.079Z,15.08
2022-11-19T03:28:52.944Z,15.09
2022-11-19T03:30:25.111Z,15.08
2022-11-19T03:31:58.917Z,15.07
2022-11-19T03:33:31.898Z,15.04
2022-11-19T03:35:08.233Z,15.04
2022-11-19T03:36:40.711Z,15.09
2022-11-19T03:38:15.300Z,15.14
2022-11-19T03:39:49.014Z,15.16
2022-11-19T03:41:21.847Z,15.14
2022-11-19T03:42:54.464Z,15.13
2022-11-19T03:44:30.274Z,15.15
2022-11-19T03:46:03.985Z,15.19
2022-11-19T03:47:36.716Z,15.23
2022-11-19T03:49:18.152Z,15.22
2022-11-19T03:50:59.817Z,15.17
2022-11-19T03:52:51.084Z,15.14
2022-11-19T03:54:34.530Z,15.11
2022-11-19T03:56:16.730Z,15.14
2022-11-19T03:58:44.018Z,15.10
2022-11-19T04:00:34.684Z,15.03
2022-11-19T04:03:01.928Z,15.01
2022-11-19T04:04:37.921Z,15.01
2022-11-19T04:06:13.017Z,15.02
2022-11-19T04:07:58.971Z,15.03
2022-11-19T04:09:45.721Z,15.06
2022-11-19T04:13:21.358Z,14.97
2022-11-19T04:14:53.157Z,14.89
2022-11-19T04:16:24.849Z,14.81
2022-11-19T04:17:56.581Z,14.74
2022-11-19T04:19:28.401Z,14.68
2022-11-19T04:21:00.053Z,14.65
2022-11-19T04:22:31.773Z,14.64
2022-11-19T04:24:03.618Z,14.61
2022-11-19T04:25:36.068Z,14.56
2022-11-19T04:27:07.828Z,14.48
2022-11-19T04:28:44.287Z,14.40
2022-11-19T04:30:26.018Z,14.35
2022-11-19T04:32:01.512Z,14.27
2022-11-19T04:33:41.362Z,14.26
2022-11-19T04:35:31.739Z,14.23
2022-11-19T04:39:24.784Z,14.25
2022-11-19T04:41:20.423Z,14.22
2022-11-19T04:43:07.556Z,14.24
2022-11-19T04:44:52.994Z,14.28
2022-11-19T04:46:35.806Z,14.26
2022-11-19T05:02:38.329Z,14.35
2022-11-19T05:04:10.293Z,14.35
2022-11-19T05:05:42.518Z,14.33
2022-11-19T05:07:14.234Z,14.31
2022-11-19T05:08:48.366Z,14.29
2022-11-19T05:10:20.297Z,14.28
2022-11-19T05:11:52.068Z,14.26
2022-11-19T05:13:23.936Z,14.24
2022-11-19T05:14:55.563Z,14.24
2022-11-19T05:16:28.332Z,14.28
2022-11-19T05:18:00.787Z,14.32
2022-11-19T05:19:33.319Z,14.31
2022-11-19T05:21:05.512Z,14.27
2022-11-19T05:22:37.698Z,14.20
2022-11-19T05:24:10.173Z,14.13
2022-11-19T05:25:42.272Z,14.08
2022-11-19T05:27:14.003Z,14.08
2022-11-19T05:28:47.085Z,14.04
2022-11-19T05:30:18.858Z,13.99
2022-11-19T05:31:50.385Z,13.97
2022-11-19T05:33:23.586Z,13.94
2022-11-19T05:34:55.330Z,13.88
2022-11-19T05:36:27.175Z,13.85
2022-11-19T05:37:59.945Z,13.83
2022-11-19T05:39:31.993Z,13.83
2022-11-19T05:41:04.425Z,13.84
2022-11-19T05:42:36.393Z,13.84
2022-11-19T05:44:08.531Z,13.85
2022-11-19T05:45:42.265Z,13.86
2022-11-19T05:47:16.302Z,13.88
2022-11-19T05:48:48.743Z,13.92
2022-11-19T05:50:20.646Z,13.94
2022-11-19T05:52:16.109Z,13.99
2022-11-19T05:54:35.541Z,14.04
2022-11-19T05:58:04.391Z,14.21
2022-11-19T05:59:55.710Z,14.32
2022-11-19T06:01:36.846Z,14.45
2022-11-19T06:03:09.380Z,14.60
2022-11-19T06:04:41.814Z,14.71
2022-11-19T06:06:14.180Z,14.83
2022-11-19T06:07:47.911Z,14.96
2022-11-19T06:09:20.164Z,15.09
2022-11-19T06:10:53.051Z,15.23
2022-11-19T06:12:25.349Z,15.41
2022-11-19T06:13:59.090Z,15.57
2022-11-19T06:15:30.895Z,15.63
2022-11-19T06:17:03.425Z,15.64
2022-11-19T06:18:35.265Z,15.66
2022-11-19T06:20:11.515Z,15.72
2022-11-19T06:21:43.308Z,15.80
2022-11-19T06:23:16.913Z,15.90
2022-11-19T06:24:49.827Z,15.97
2022-11-19T06:26:25.246Z,15.97
2022-11-19T06:27:57.376Z,16.00
2022-11-19T06:29:30.363Z,16.06
2022-11-19T06:31:02.496Z,16.11
2022-11-19T06:32:34.916Z,16.07
2022-11-19T06:34:09.760Z,16.07
2022-11-19T06:35:43.430Z,16.09
2022-11-19T06:37:16.512Z,16.08
2022-11-19T06:38:51.056Z,15.91
2022-11-19T06:40:25.019Z,15.82
2022-11-19T06:42:17.469Z,15.73
2022-11-19T06:43:49.249Z,15.58
2022-11-19T06:45:21.738Z,15.53
2022-11-19T06:46:53.585Z,15.49
2022-11-19T06:48:26.408Z,15.45
2022-11-19T06:50:05.298Z,15.39
2022-11-19T06:51:37.027Z,15.38
2022-11-19T06:53:08.801Z,15.42
2022-11-19T06:54:43.344Z,15.45
2022-11-19T06:56:15.297Z,15.46
2022-11-19T06:57:46.919Z,15.43
2022-11-19T06:59:18.925Z,15.38
2022-11-19T07:00:50.877Z,15.35
2022-11-19T07:02:22.713Z,15.27
2022-11-19T07:03:54.549Z,15.19
2022-11-19T07:05:26.352Z,15.12
2022-11-19T07:06:58.241Z,15.09
2022-11-19T07:08:33.929Z,15.01
2022-11-19T07:10:06.570Z,14.97
2022-11-19T07:11:38.430Z,14.95
2022-11-19T07:13:10.103Z,15.00
2022-11-19T07:14:41.994Z,15.09
2022-11-19T07:16:13.698Z,15.24
2022-11-19T07:17:45.909Z,15.29
2022-11-19T07:19:17.786Z,15.42
2022-11-19T07:20:49.830Z,15.58
2022-11-19T07:22:21.548Z,15.80
2022-11-19T07:23:53.327Z,15.87
2022-11-19T07:25:24.931Z,15.91
2022-11-19T07:26:57.116Z,15.96
2022-11-19T07:28:28.961Z,16.03
2022-11-19T07:30:00.832Z,16.15
2022-11-19T07:31:33.512Z,16.31
2022-11-19T07:33:05.257Z,16.50
2022-11-19T07:34:37.133Z,16.73
2022-11-19T07:36:15.346Z,16.95
2022-11-19T07:37:49.826Z,17.24
2022-11-19T07:39:22.115Z,17.49
2022-11-19T07:40:54.449Z,17.72
2022-11-19T07:42:45.077Z,17.86
2022-11-19T07:44:16.749Z,17.95
2022-11-19T07:45:48.737Z,17.95
2022-11-19T07:47:20.457Z,17.98
2022-11-19T07:48:53.356Z,17.96
2022-11-19T07:50:25.397Z,18.02
2022-11-19T07:51:57.822Z,18.06
2022-11-19T07:53:29.507Z,18.20
2022-11-19T07:55:01.299Z,18.30
2022-11-19T07:56:33.394Z,18.32
2022-11-19T07:58:05.296Z,18.44
2022-11-19T07:59:36.981Z,18.56
2022-11-19T08:01:12.625Z,18.71
2022-11-19T08:02:44.356Z,18.80
2022-11-19T08:04:16.533Z,18.82
2022-11-19T08:05:48.166Z,18.86
2022-11-19T08:07:21.534Z,18.93
2022-11-19T08:08:54.094Z,19.01
2022-11-19T08:10:37.138Z,19.05
2022-11-19T08:12:18.896Z,19.10
2022-11-19T08:13:55.177Z,19.05
2022-11-19T08:16:00.878Z,18.97
2022-11-19T08:17:51.748Z,18.91
2022-11-19T08:19:29.319Z,19.01
2022-11-19T08:21:11.337Z,19.13
2022-11-19T08:22:52.395Z,19.22
2022-11-19T08:24:27.690Z,19.25
2022-11-19T08:29:21.728Z,19.22
2022-11-19T08:30:54.066Z,19.31
2022-11-19T08:32:26.075Z,19.40
2022-11-19T08:33:58.016Z,19.31
2022-11-19T08:35:29.727Z,19.32
2022-11-19T08:37:01.473Z,19.44
2022-11-19T08:38:38.288Z,19.53
2022-11-19T08:40:11.006Z,19.63
2022-11-19T08:42:01.151Z,19.84
2022-11-19T08:43:33.638Z,20.09
2022-11-19T08:45:05.649Z,20.28
2022-11-19T08:46:37.998Z,20.44
2022-11-19T08:48:10.702Z,20.63
2022-11-19T08:49:42.772Z,20.78
2022-11-19T08:51:15.249Z,20.99
2022-11-19T08:52:47.348Z,21.10
2022-11-19T08:54:19.673Z,21.14
2022-11-19T08:55:52.008Z,21.31
2022-11-19T08:57:24.176Z,21.47
2022-11-19T08:59:02.284Z,21.49
2022-11-19T09:00:35.652Z,21.57
2022-11-19T09:02:09.576Z,21.50
2022-11-19T09:03:41.365Z,21.53
2022-11-19T09:05:14.662Z,21.62
2022-11-19T09:06:46.620Z,21.67
2022-11-19T09:08:18.538Z,21.62
2022-11-19T09:09:50.535Z,21.56
2022-11-19T09:11:22.611Z,21.55
2022-11-19T09:12:54.636Z,21.55
2022-11-19T09:15:05.343Z,21.53
2022-11-19T09:21:55.920Z,21.93
2022-11-19T09:23:28.546Z,21.82
2022-11-19T09:25:00.421Z,21.89
2022-11-19T09:26:38.345Z,22.05
2022-11-19T09:28:12.426Z,22.04
2022-11-19T09:29:44.776Z,21.99
2022-11-19T09:31:17.224Z,22.02
2022-11-19T09:32:49.034Z,21.97
2022-11-19T09:34:21.455Z,21.87
2022-11-19T09:38:20.879Z,21.61
2022-11-19T09:41:57.301Z,21.54
2022-11-19T09:43:57.231Z,21.40
2022-11-19T09:45:38.501Z,21.24
2022-11-19T09:47:16.268Z,21.10
2022-11-19T09:48:48.146Z,20.91
2022-11-19T09:50:21.006Z,20.93
2022-11-19T09:51:54.575Z,20.80
2022-11-19T09:53:30.387Z,20.69
2022-11-19T09:55:02.273Z,20.64
2022-11-19T09:56:39.488Z,20.62
2022-11-19T09:58:13.255Z,20.68
2022-11-19T09:59:57.332Z,20.69
2022-11-19T10:01:38.086Z,20.69
2022-11-19T10:10:35.913Z,20.11
2022-11-19T10:12:13.493Z,20.07
2022-11-19T10:14:00.367Z,20.03
2022-11-19T10:15:37.468Z,20.01
2022-11-19T10:17:17.221Z,20.10
2022-11-19T10:18:49.651Z,20.13
2022-11-19T10:20:30.660Z,20.17
2022-11-19T10:22:09.977Z,20.22
2022-11-19T10:23:41.535Z,20.24
2022-11-19T10:25:16.096Z,20.20
2022-11-19T10:26:57.588Z,20.13
2022-11-19T10:28:32.538Z,20.11
2022-11-19T10:30:06.872Z,20.16
2022-11-19T10:31:48.570Z,20.16
2022-11-19T10:33:20.367Z,20.20
2022-11-19T10:34:52.987Z,20.37
2022-11-19T10:36:47.713Z,20.49
2022-11-19T10:38:35.147Z,20.47
2022-11-19T10:40:08.665Z,20.30
2022-11-19T10:41:46.652Z,20.08
2022-11-19T10:43:23.584Z,19.93
2022-11-19T10:44:57.190Z,19.81
2022-11-19T10:46:29.451Z,19.74
2022-11-19T10:48:13.386Z,19.68
2022-11-19T10:49:47.598Z,19.77
2022-11-19T10:51:22.986Z,19.96
2022-11-19T10:53:15.425Z,20.11
2022-11-19T10:54:50.209Z,20.17
2022-11-19T10:56:27.405Z,20.11
2022-11-19T10:58:06.309Z,20.05
2022-11-19T10:59:40.943Z,19.99
2022-11-19T11:01:35.353Z,20.11
2022-11-19T11:03:14.228Z,20.26
2022-11-19T11:05:02.826Z,20.47
2022-11-19T11:06:51.504Z,20.69
2022-11-19T11:08:24.200Z,20.94
2022-11-19T11:09:56.246Z,21.16
2022-11-19T11:11:49.033Z,21.31
2022-11-19T11:13:39.831Z,21.54
2022-11-19T11:15:52.701Z,21.60
2022-11-19T11:17:44.937Z,21.52
2022-11-19T11:24:20.193Z,21.35
2022-11-19T11:25:54.831Z,21.12
2022-11-19T11:27:35.411Z,21.00
2022-11-19T11:29:15.396Z,20.83
2022-11-19T11:30:54.595Z,20.79
2022-11-19T11:32:41.423Z,20.85
2022-11-19T11:34:26.574Z,20.96
2022-11-19T11:36:08.617Z,21.05
2022-11-19T11:37:40.885Z,21.14
2022-11-19T11:39:23.362Z,21.19
2022-11-19T11:41:20.064Z,21.19
2022-11-19T11:42:52.320Z,21.17
2022-11-19T11:44:28.145Z,21.28
2022-11-19T11:46:16.575Z,21.36
2022-11-19T11:47:52.845Z,21.64
2022-11-19T11:49:33.173Z,21.83
2022-11-19T11:51:08.961Z,22.05
2022-11-19T11:52:45.339Z,22.20
2022-11-19T11:54:22.332Z,22.35
2022-11-19T11:56:03.682Z,22.34
2022-11-19T11:57:38.691Z,22.40
2022-11-19T11:59:14.618Z,22.54
2022-11-19T12:00:46.749Z,22.70
2022-11-19T12:02:21.944Z,22.84
2022-11-19T12:03:56.424Z,23.02
2022-11-19T12:05:30.361Z,23.02
2022-11-19T12:07:28.560Z,23.01
2022-11-19T12:09:02.261Z,22.84
2022-11-19T12:10:52.860Z,22.69
2022-11-19T12:12:28.269Z,22.67
2022-11-19T12:14:02.713Z,22.60
2022-11-19T12:15:41.294Z,22.40
2022-11-19T12:17:22.358Z,22.27
2022-11-19T12:19:05.151Z,22.30
2022-11-19T12:20:40.919Z,22.28
2022-11-19T12:22:23.851Z,22.11
2022-11-19T12:24:02.249Z,22.08
2022-11-19T12:26:14.459Z,22.05
2022-11-19T12:27:52.905Z,21.90
2022-11-19T12:29:46.382Z,21.80
2022-11-19T12:31:29.867Z,21.72
2022-11-19T12:33:05.866Z,21.66
2022-11-19T12:34:48.233Z,21.66
2022-11-19T12:36:28.172Z,21.57
2022-11-19T12:38:06.188Z,21.50
2022-11-19T12:39:51.492Z,21.41
2022-11-19T12:41:28.281Z,21.25
2022-11-19T12:43:21.725Z,21.13
2022-11-19T12:45:13.188Z,21.06
2022-11-19T12:46:49.456Z,20.94
2022-11-19T12:48:39.136Z,20.89
2022-11-19T12:50:15.358Z,20.79
2022-11-19T12:51:53.239Z,20.75
2022-11-19T12:53:31.304Z,20.72
2022-11-19T12:55:05.654Z,20.66
2022-11-19T12:56:48.324Z,20.58
2022-11-19T12:58:39.143Z,20.48
2022-11-19T13:00:14.834Z,20.38
2022-11-19T13:01:49.585Z,20.30
2022-11-19T13:03:35.040Z,20.25
2022-11-19T13:05:19.885Z,20.25
2022-11-19T13:07:04.275Z,20.25
2022-11-19T13:08:55.272Z,20.24
2022-11-19T13:10:52.133Z,20.13
2022-11-19T13:12:28.229Z,20.05
2022-11-19T13:14:03.433Z,20.00
2022-11-19T13:15:39.707Z,19.99
2022-11-19T13:17:38.408Z,19.99
2022-11-19T13:19:15.775Z,20.02
2022-11-19T13:20:47.982Z,20.07
2022-11-19T13:22:33.443Z,20.08
2022-11-19T13:24:17.444Z,20.04
2022-11-19T13:26:22.159Z,19.99
2022-11-19T13:27:54.944Z,19.94
2022-11-19T13:29:55.193Z,19.97
2022-11-19T13:31:35.471Z,19.95
2022-11-19T13:33:08.874Z,19.97
2022-11-19T13:34:42.223Z,19.98
2022-11-19T13:36:26.310Z,19.99
2022-11-19T13:38:16.845Z,19.94
2022-11-19T13:39:50.786Z,19.90
2022-11-19T13:41:28.657Z,19.89
2022-11-19T13:43:34.673Z,19.88
2022-11-19T13:45:10.729Z,19.84
2022-11-19T13:46:46.677Z,19.86
2022-11-19T13:48:28.837Z,19.88
2022-11-19T13:50:03.476Z,19.86
2022-11-19T13:51:41.321Z,19.84
2022-11-19T13:53:17.912Z,19.79
2022-11-19T13:54:49.740Z,19.75
2022-11-19T13:56:21.988Z,19.72
2022-11-19T13:57:53.905Z,19.67
2022-11-19T13:59:37.086Z,19.67
2022-11-19T14:01:12.239Z,19.67
2022-11-19T14:02:46.747Z,19.60
2022-11-19T14:04:18.841Z,19.60
2022-11-19T14:06:08.968Z,19.58
2022-11-19T14:07:50.296Z,19.57
2022-11-19T14:09:28.566Z,19.57
2022-11-19T14:11:19.896Z,19.61
2022-11-19T14:12:54.713Z,19.61
2022-11-19T14:15:03.984Z,19.61
2022-11-19T14:17:10.868Z,19.52
2022-11-19T14:19:05.193Z,19.44
2022-11-19T14:20:59.480Z,19.37
2022-11-19T14:22:50.970Z,19.35
2022-11-19T14:24:44.324Z,19.30
2022-11-19T14:26:36.235Z,19.22
2022-11-19T14:28:27.242Z,19.18
2022-11-19T14:30:00.419Z,19.19
2022-11-19T14:31:32.337Z,19.17
2022-11-19T14:33:04.204Z,19.15
2022-11-19T14:34:37.358Z,19.14
2022-11-19T14:36:12.130Z,19.15
2022-11-19T14:37:48.735Z,19.17
2022-11-19T14:39:23.776Z,19.18
2022-11-19T14:41:06.432Z,19.19
2022-11-19T14:43:06.285Z,19.18
2022-11-19T14:44:38.206Z,19.17
2022-11-19T14:46:13.400Z,19.15
2022-11-19T14:47:46.382Z,19.15
2022-11-19T14:49:24.299Z,19.12
2022-11-19T14:51:16.089Z,19.12
2022-11-19T14:52:54.385Z,19.16
2022-11-19T14:54:33.333Z,19.17
2022-11-19T14:56:15.066Z,19.16
2022-11-19T14:57:53.491Z,19.14
2022-11-19T14:59:25.506Z,19.15
2022-11-19T15:01:05.869Z,19.13
2022-11-19T15:02:38.095Z,19.06
2022-11-19T15:04:12.739Z,19.03
2022-11-19T15:05:48.071Z,19.01
2022-11-19T15:07:36.516Z,18.97
2022-11-19T15:09:10.918Z,18.90
2022-11-19T15:10:46.962Z,18.82
2022-11-19T15:12:21.914Z,18.80
2022-11-19T15:14:14.012Z,18.80
2022-11-19T15:15:46.404Z,18.78
2022-11-19T15:17:18.855Z,18.76
2022-11-19T15:18:55.492Z,18.75
2022-11-19T15:20:29.226Z,18.74
2022-11-19T15:22:08.777Z,18.73
2022-11-19T15:23:46.008Z,18.74
2022-11-19T15:25:17.849Z,18.78
2022-11-19T15:27:04.937Z,18.83
2022-11-19T15:28:36.634Z,18.88
2022-11-19T15:30:11.860Z,18.90
2022-11-19T15:32:06.692Z,18.88
2022-11-19T15:33:52.461Z,18.87
2022-11-19T15:35:24.104Z,18.83
2022-11-19T15:36:56.701Z,18.75
2022-11-19T15:38:30.267Z,18.77
2022-11-19T15:40:01.928Z,18.74
2022-11-19T15:41:35.847Z,18.66
2022-11-19T15:43:22.662Z,18.63
2022-11-19T15:44:55.796Z,18.60
2022-11-19T15:46:30.481Z,18.59
2022-11-19T15:48:16.484Z,18.57
2022-11-19T15:49:48.268Z,18.54
2022-11-19T15:51:19.975Z,18.50
2022-11-19T15:52:58.550Z,18.51
2022-11-19T15:54:31.345Z,18.49
2022-11-19T15:56:06.989Z,18.47
2022-11-19T15:57:42.247Z,18.46
2022-11-19T15:59:14.198Z,18.40
2022-11-19T16:00:46.771Z,18.39
2022-11-19T16:02:19.743Z,18.38
2022-11-19T16:03:51.984Z,18.40
2022-11-19T16:05:25.731Z,18.38
2022-11-19T16:06:57.453Z,18.39
2022-11-19T16:08:32.810Z,18.36
2022-11-19T16:10:04.855Z,18.35
2022-11-19T16:11:55.333Z,18.32
2022-11-19T16:13:45.628Z,18.27
2022-11-19T16:15:37.229Z,18.26
2022-11-19T16:17:43.195Z,18.24
2022-11-19T16:19:16.179Z,18.18
2022-11-19T16:20:49.226Z,18.14
2022-11-19T16:22:21.007Z,18.11
2022-11-19T16:24:11.127Z,18.11
2022-11-19T16:25:43.324Z,18.09
2022-11-19T16:27:21.549Z,18.12
2022-11-19T16:28:53.211Z,18.11
2022-11-19T16:30:26.288Z,18.07
2022-11-19T16:31:59.937Z,18.03
2022-11-19T16:33:31.923Z,17.96
2022-11-19T16:35:16.310Z,17.94
2022-11-19T16:36:48.346Z,17.92
2022-11-19T16:38:23.799Z,17.91
2022-11-19T16:39:55.580Z,17.93
2022-11-19T16:41:46.215Z,17.95
2022-11-19T16:43:18.021Z,17.99
2022-11-19T16:44:50.537Z,18.06
2022-11-19T16:46:22.325Z,18.12
2022-11-19T16:47:54.468Z,18.14
2022-11-19T16:49:30.536Z,18.16
2022-11-19T16:51:06.590Z,18.16
2022-11-19T16:52:38.954Z,18.20
2022-11-19T16:54:10.787Z,18.20
2022-11-19T16:55:43.142Z,18.21
2022-11-19T16:57:16.277Z,18.21
2022-11-19T16:58:47.952Z,18.26
2022-11-19T17:00:20.910Z,18.28
2022-11-19T17:01:56.321Z,18.28
2022-11-19T17:03:41.003Z,18.27
2022-11-19T17:05:13.474Z,18.26
2022-11-19T17:06:45.194Z,18.23
2022-11-19T17:08:27.731Z,18.22
2022-11-19T17:10:10.487Z,18.20
2022-11-19T17:12:09.675Z,18.17
2022-11-19T17:13:41.630Z,18.07
2022-11-19T17:15:31.957Z,18.01
2022-11-19T17:17:03.959Z,17.93
2022-11-19T17:18:36.043Z,17.91
2022-11-19T17:20:27.386Z,17.92
2022-11-19T17:22:00.316Z,17.93
2022-11-19T17:23:33.479Z,17.95
2022-11-19T17:25:05.502Z,17.96
2022-11-19T17:26:37.213Z,17.97
2022-11-19T17:28:10.852Z,17.98
2022-11-19T17:29:44.791Z,18.02
2022-11-19T17:31:16.605Z,17.99
2022-11-19T17:32:49.383Z,17.98
2022-11-19T17:34:31.488Z,17.98
2022-11-19T17:36:03.436Z,17.89
2022-11-19T17:37:35.111Z,17.88
2022-11-19T17:39:13.067Z,17.90
2022-11-19T17:40:46.055Z,17.89
2022-11-19T17:42:36.107Z,17.92
2022-11-19T17:44:32.821Z,17.93
2022-11-19T17:46:04.500Z,17.94
2022-11-19T17:47:36.277Z,17.97
2022-11-19T17:49:09.345Z,17.99
2022-11-19T17:50:41.471Z,18.00
2022-11-19T17:52:22.770Z,17.96
2022-11-19T17:53:55.997Z,17.96
2022-11-19T17:55:27.869Z,17.93
2022-11-19T17:56:59.549Z,17.93
2022-11-19T17:58:31.207Z,17.85
2022-11-19T18:00:03.062Z,17.78
2022-11-19T18:01:35.137Z,17.74
2022-11-19T18:03:06.745Z,17.74
2022-11-19T18:04:38.570Z,17.76
2022-11-19T18:06:13.637Z,17.78
2022-11-19T18:07:46.876Z,17.80
2022-11-19T18:09:19.504Z,17.74
2022-11-19T18:10:51.456Z,17.75
2022-11-19T18:12:23.346Z,17.77
2022-11-19T18:13:55.464Z,17.84
2022-11-19T18:15:27.350Z,17.86
2022-11-19T18:16:59.156Z,17.88
2022-11-19T18:18:30.691Z,17.91
2022-11-19T18:20:02.607Z,17.94
2022-11-19T18:21:37.599Z,17.90
2022-11-19T18:23:12.383Z,17.88
2022-11-19T18:24:44.880Z,17.88
2022-11-19T18:26:20.643Z,17.82
2022-11-19T18:27:52.335Z,17.78
2022-11-19T18:29:24.840Z,17.73
2022-11-19T18:30:56.609Z,17.70
2022-11-19T18:32:28.614Z,17.65
2022-11-19T18:34:00.413Z,17.59
2022-11-19T18:35:33.005Z,17.53
2022-11-19T18:37:04.609Z,17.53
2022-11-19T18:38:36.557Z,17.54
2022-11-19T18:40:09.329Z,17.56
2022-11-19T18:41:41.657Z,17.54
2022-11-19T18:43:35.085Z,17.55
2022-11-19T18:45:10.386Z,17.55
2022-11-19T18:46:42.711Z,17.56
2022-11-19T18:48:14.541Z,17.57
2022-11-19T18:49:46.150Z,17.57
2022-11-19T18:51:25.529Z,17.57
2022-11-19T18:53:04.133Z,17.61
2022-11-19T18:54:37.458Z,17.57
2022-11-19T18:56:14.429Z,17.56
2022-11-19T18:57:53.985Z,17.54
2022-11-19T18:59:26.143Z,17.53
2022-11-19T19:00:58.353Z,17.57
2022-11-19T19:02:31.625Z,17.61
2022-11-19T19:04:04.162Z,17.65
2022-11-19T19:05:37.174Z,17.66
2022-11-19T19:07:10.707Z,17.69
2022-11-19T19:08:43.888Z,17.70
2022-11-19T19:10:16.272Z,17.70
2022-11-19T19:12:13.489Z,17.69
2022-11-19T19:13:46.615Z,17.69
2022-11-19T19:15:18.704Z,17.68
2022-11-19T19:16:56.948Z,17.71
2022-11-19T19:18:29.392Z,17.74
2022-11-19T19:20:03.305Z,17.76
2022-11-19T19:21:36.054Z,17.79
2022-11-19T19:23:07.931Z,17.83
2022-11-19T19:24:39.964Z,17.85
2022-11-19T19:26:11.817Z,17.85
2022-11-19T19:27:45.266Z,17.86
2022-11-19T19:29:17.107Z,17.86
2022-11-19T19:30:48.839Z,17.82
2022-11-19T19:32:20.830Z,17.82
2022-11-19T19:33:52.706Z,17.80
2022-11-19T19:35:25.721Z,17.82
2022-11-19T19:37:00.300Z,17.85
2022-11-19T19:38:34.595Z,17.87
2022-11-19T19:40:07.531Z,17.92
2022-11-19T19:41:39.766Z,17.94
2022-11-19T19:43:11.993Z,17.96
2022-11-19T19:44:44.365Z,18.00
2022-11-19T19:46:21.410Z,18.03
2022-11-19T19:47:53.407Z,18.09
2022-11-19T19:49:27.398Z,18.11
2022-11-19T19:51:00.533Z,18.16
2022-11-19T19:52:32.619Z,18.14
2022-11-19T19:54:04.761Z,18.13
2022-11-19T19:55:36.317Z,18.09
2022-11-19T19:57:11.216Z,18.12
2022-11-19T19:58:46.344Z,18.08
2022-11-19T20:00:18.125Z,18.03
2022-11-19T20:01:59.558Z,17.95
2022-11-19T20:03:32.980Z,17.87
2022-11-19T20:05:06.565Z,17.79
2022-11-19T20:06:41.712Z,17.70
2022-11-19T20:08:17.578Z,17.63
2022-11-19T20:09:53.598Z,17.62
2022-11-19T20:11:28.046Z,17.63
2022-11-19T20:13:19.932Z,17.63
2022-11-19T20:14:54.735Z,17.63
2022-11-19T20:16:32.076Z,17.66
2022-11-19T20:18:04.386Z,17.58
2022-11-19T20:19:38.951Z,17.60
2022-11-19T20:21:13.442Z,17.60
2022-11-19T20:22:46.126Z,17.61
2022-11-19T20:24:21.269Z,17.60
2022-11-19T20:25:56.399Z,17.56
2022-11-19T20:27:28.625Z,17.58
2022-11-19T20:29:09.687Z,17.49
2022-11-19T20:30:42.970Z,17.41
2022-11-19T20:32:16.160Z,17.39
2022-11-19T20:33:50.757Z,17.37
2022-11-19T20:35:25.392Z,17.32
2022-11-19T20:36:58.982Z,17.32
2022-11-19T20:38:32.383Z,17.29
2022-11-19T20:40:09.001Z,17.24
2022-11-19T20:41:59.610Z,17.19
2022-11-19T20:43:52.863Z,17.14
2022-11-19T20:45:25.830Z,17.10
2022-11-19T20:46:59.565Z,17.08
2022-11-19T20:48:31.525Z,17.07
2022-11-19T20:50:05.168Z,17.07
2022-11-19T20:51:40.091Z,17.05
2022-11-19T20:53:11.868Z,17.06
2022-11-19T20:54:43.940Z,17.09
2022-11-19T20:56:16.042Z,17.12
2022-11-19T20:57:47.911Z,17.13
2022-11-19T20:59:20.544Z,17.11
2022-11-19T21:01:13.055Z,17.11
2022-11-19T21:02:45.323Z,17.12
2022-11-19T21:04:17.379Z,17.12
2022-11-19T21:05:49.160Z,17.14
2022-11-19T21:07:21.070Z,17.12
2022-11-19T21:08:52.772Z,17.11
2022-11-19T21:10:24.701Z,17.13
2022-11-19T21:11:56.298Z,17.21
2022-11-19T21:13:27.916Z,17.23
2022-11-19T21:14:59.592Z,17.24
2022-11-19T21:16:32.017Z,17.26
2022-11-19T21:18:03.840Z,17.24
2022-11-19T21:19:36.369Z,17.22
2022-11-19T21:21:08.897Z,17.21
2022-11-19T21:22:40.966Z,17.21
2022-11-19T21:24:13.236Z,17.20
2022-11-19T21:25:45.617Z,17.21
2022-11-19T21:27:17.639Z,17.21
2022-11-19T21:28:51.682Z,17.21
2022-11-19T21:30:23.326Z,17.23
2022-11-19T21:31:55.764Z,17.21
2022-11-19T21:33:27.442Z,17.20
2022-11-19T21:34:59.476Z,17.17
2022-11-19T21:36:31.831Z,17.20
2022-11-19T21:38:07.066Z,17.22
2022-11-19T21:39:41.214Z,17.23